sensor_id;sensor_type;location;lat;lon;timestamp;pressure;altitude;pressure_sealevel;temperature;humidity
69257;BME280;56376;53.356;-1.748;2023-02-04T00:00:50;101292.41;;;7.92;100.00
69257;BME280;56376;53.356;-1.748;2023-02-04T00:03:16;101299.34;;;7.93;100.00
69257;BME280;56376;53.356;-1.748;2023-02-04T00:05:42;101301.09;;;7.92;100.00
69257;BME280;56376;53.356;-1.748;2023-02-04T00:08:08;101301.09;;;7.94;100.00
69257;BME280;56376;53.356;-1.748;2023-02-04T00:10:34;101309.78;;;7.94;100.00
69257;BME280;56376;53.356;-1.748;2023-02-04T00:13:00;101308.03;;;7.92;100.00
69257;BME280;56376;53.356;-1.748;2023-02-04T00:15:25;101305.41;;;7.93;100.00
69257;BME280;56376;53.356;-1.748;2023-02-04T00:17:51;101298.47;;;7.92;100.00
69257;BME280;56376;53.356;-1.748;2023-02-04T00:20:16;101301.94;;;7.93;100.00
69257;BME280;56376;53.356;-1.748;2023-02-04T00:22:44;101301.09;;;7.94;100.00
69257;BME280;56376;53.356;-1.748;2023-02-04T00:25:10;101301.94;;;7.93;100.00
69257;BME280;56376;53.356;-1.748;2023-02-04T00:27:37;101295.91;;;7.94;100.00
69257;BME280;56376;53.356;-1.748;2023-02-04T00:30:04;101301.94;;;7.93;100.00
69257;BME280;56376;53.356;-1.748;2023-02-04T00:32:29;101305.41;;;7.92;100.00
69257;BME280;56376;53.356;-1.748;2023-02-04T00:34:55;101296.72;;;7.88;100.00
69257;BME280;56376;53.356;-1.748;2023-02-04T00:37:20;101297.59;;;7.87;100.00
69257;BME280;56376;53.356;-1.748;2023-02-04T00:39:46;101299.31;;;7.88;100.00
69257;BME280;56376;53.356;-1.748;2023-02-04T00:42:11;101288.06;;;7.85;100.00
69257;BME280;56376;53.356;-1.748;2023-02-04T00:44:37;101298.47;;;7.85;100.00
69257;BME280;56376;53.356;-1.748;2023-02-04T00:47:03;101302.81;;;7.84;100.00
69257;BME280;56376;53.356;-1.748;2023-02-04T00:49:29;101298.47;;;7.82;100.00
69257;BME280;56376;53.356;-1.748;2023-02-04T00:51:54;101296.72;;;7.82;100.00
69257;BME280;56376;53.356;-1.748;2023-02-04T00:54:20;101301.91;;;7.80;100.00
69257;BME280;56376;53.356;-1.748;2023-02-04T00:56:45;101298.47;;;7.82;100.00
69257;BME280;56376;53.356;-1.748;2023-02-04T00:59:10;101300.19;;;7.79;100.00
69257;BME280;56376;53.356;-1.748;2023-02-04T01:01:36;101296.69;;;7.76;100.00
69257;BME280;56376;53.356;-1.748;2023-02-04T01:04:02;101299.28;;;7.73;100.00
69257;BME280;56376;53.356;-1.748;2023-02-04T01:06:27;101307.06;;;7.73;100.00
69257;BME280;56376;53.356;-1.748;2023-02-04T01:08:52;101293.19;;;7.71;100.00
69257;BME280;56376;53.356;-1.748;2023-02-04T01:11:18;101305.34;;;7.69;100.00
69257;BME280;56376;53.356;-1.748;2023-02-04T01:13:44;101301.88;;;7.70;100.00
69257;BME280;56376;53.356;-1.748;2023-02-04T01:16:09;101309.69;;;7.70;100.00
69257;BME280;56376;53.356;-1.748;2023-02-04T01:18:34;101318.34;;;7.69;100.00
69257;BME280;56376;53.356;-1.748;2023-02-04T01:21:00;101303.59;;;7.66;100.00
69257;BME280;56376;53.356;-1.748;2023-02-04T01:23:25;101311.41;;;7.68;100.00
69257;BME280;56376;53.356;-1.748;2023-02-04T01:25:51;101309.69;;;7.70;100.00
69257;BME280;56376;53.356;-1.748;2023-02-04T01:28:16;101306.19;;;7.68;100.00
69257;BME280;56376;53.356;-1.748;2023-02-04T01:30:42;101305.34;;;7.67;100.00
69257;BME280;56376;53.356;-1.748;2023-02-04T01:33:07;101309.66;;;7.68;100.00
69257;BME280;56376;53.356;-1.748;2023-02-04T01:35:32;101311.41;;;7.68;100.00
69257;BME280;56376;53.356;-1.748;2023-02-04T01:37:58;101303.59;;;7.66;100.00
69257;BME280;56376;53.356;-1.748;2023-02-04T01:40:23;101308.78;;;7.68;100.00
69257;BME280;56376;53.356;-1.748;2023-02-04T01:42:49;101323.56;;;7.69;100.00
69257;BME280;56376;53.356;-1.748;2023-02-04T01:45:15;101326.13;;;7.66;100.00
69257;BME280;56376;53.356;-1.748;2023-02-04T01:47:40;101330.47;;;7.67;100.00
69257;BME280;56376;53.356;-1.748;2023-02-04T01:50:06;101324.38;;;7.63;100.00
69257;BME280;56376;53.356;-1.748;2023-02-04T01:52:36;101323.53;;;7.64;100.00
69257;BME280;56376;53.356;-1.748;2023-02-04T01:55:05;101334.81;;;7.66;100.00
69257;BME280;56376;53.356;-1.748;2023-02-04T01:57:35;101332.19;;;7.62;100.00
69257;BME280;56376;53.356;-1.748;2023-02-04T02:00:01;101339.13;;;7.63;100.00
69257;BME280;56376;53.356;-1.748;2023-02-04T02:02:48;101335.63;;;7.61;100.00
69257;BME280;56376;53.356;-1.748;2023-02-04T02:05:17;101331.28;;;7.58;100.00
69257;BME280;56376;53.356;-1.748;2023-02-04T02:07:46;101333.03;;;7.59;100.00
69257;BME280;56376;53.356;-1.748;2023-02-04T02:10:12;101321.78;;;7.58;100.00
69257;BME280;56376;53.356;-1.748;2023-02-04T02:12:39;101323.50;;;7.58;100.00
69257;BME280;56376;53.356;-1.748;2023-02-04T02:15:06;101326.97;;;7.58;100.00
69257;BME280;56376;53.356;-1.748;2023-02-04T02:17:31;101326.94;;;7.55;100.00
69257;BME280;56376;53.356;-1.748;2023-02-04T02:19:58;101326.97;;;7.57;100.00
69257;BME280;56376;53.356;-1.748;2023-02-04T02:25:27;101326.94;;;7.55;100.00
69257;BME280;56376;53.356;-1.748;2023-02-04T02:27:53;101319.13;;;7.52;100.00
69257;BME280;56376;53.356;-1.748;2023-02-04T02:30:20;101316.56;;;7.54;100.00
69257;BME280;56376;53.356;-1.748;2023-02-04T02:32:46;101309.59;;;7.53;100.00
69257;BME280;56376;53.356;-1.748;2023-02-04T02:35:14;101319.13;;;7.55;100.00
69257;BME280;56376;53.356;-1.748;2023-02-04T02:37:39;101313.94;;;7.54;100.00
69257;BME280;56376;53.356;-1.748;2023-02-04T02:40:06;101317.44;;;7.56;100.00
69257;BME280;56376;53.356;-1.748;2023-02-04T02:42:32;101314.81;;;7.54;100.00
69257;BME280;56376;53.356;-1.748;2023-02-04T02:44:58;101313.91;;;7.51;100.00
69257;BME280;56376;53.356;-1.748;2023-02-04T02:47:24;101311.34;;;7.52;100.00
69257;BME280;56376;53.356;-1.748;2023-02-04T02:49:51;101310.47;;;7.49;100.00
69257;BME280;56376;53.356;-1.748;2023-02-04T02:52:18;101312.16;;;7.48;100.00
69257;BME280;56376;53.356;-1.748;2023-02-04T02:54:44;101312.19;;;7.47;100.00
69257;BME280;56376;53.356;-1.748;2023-02-04T02:57:13;101308.69;;;7.48;100.00
69257;BME280;56376;53.356;-1.748;2023-02-04T02:59:38;101317.34;;;7.45;100.00
69257;BME280;56376;53.356;-1.748;2023-02-04T03:02:04;101322.56;;;7.44;100.00
69257;BME280;56376;53.356;-1.748;2023-02-04T03:04:33;101321.69;;;7.45;100.00
69257;BME280;56376;53.356;-1.748;2023-02-04T03:07:00;101316.47;;;7.43;100.00
69257;BME280;56376;53.356;-1.748;2023-02-04T03:09:26;101315.63;;;7.44;100.00
69257;BME280;56376;53.356;-1.748;2023-02-04T03:11:52;101312.16;;;7.42;100.00
69257;BME280;56376;53.356;-1.748;2023-02-04T03:14:18;101313.88;;;7.42;100.00
69257;BME280;56376;53.356;-1.748;2023-02-04T03:16:45;101318.22;;;7.41;100.00
69257;BME280;56376;53.356;-1.748;2023-02-04T03:19:11;101324.28;;;7.40;100.00
69257;BME280;56376;53.356;-1.748;2023-02-04T03:21:37;101319.94;;;7.39;100.00
69257;BME280;56376;53.356;-1.748;2023-02-04T03:24:04;101319.09;;;7.39;100.00
69257;BME280;56376;53.356;-1.748;2023-02-04T03:26:29;101318.19;;;7.38;100.00
69257;BME280;56376;53.356;-1.748;2023-02-04T03:28:55;101311.28;;;7.39;100.00
69257;BME280;56376;53.356;-1.748;2023-02-04T03:31:20;101308.66;;;7.40;100.00
69257;BME280;56376;53.356;-1.748;2023-02-04T03:33:46;101319.91;;;7.37;100.00
69257;BME280;56376;53.356;-1.748;2023-02-04T03:36:11;101317.34;;;7.39;100.00
69257;BME280;56376;53.356;-1.748;2023-02-04T03:38:37;101311.28;;;7.39;100.00
69257;BME280;56376;53.356;-1.748;2023-02-04T03:41:02;101318.19;;;7.36;100.00
69257;BME280;56376;53.356;-1.748;2023-02-04T03:43:28;101325.13;;;7.37;100.00
69257;BME280;56376;53.356;-1.748;2023-02-04T03:45:53;101318.19;;;7.35;100.00
69257;BME280;56376;53.356;-1.748;2023-02-04T03:48:18;101322.50;;;7.34;100.00
69257;BME280;56376;53.356;-1.748;2023-02-04T03:50:44;101318.19;;;7.35;100.00
69257;BME280;56376;53.356;-1.748;2023-02-04T03:53:10;101318.19;;;7.36;100.00
69257;BME280;56376;53.356;-1.748;2023-02-04T03:55:36;101317.34;;;7.36;100.00
69257;BME280;56376;53.356;-1.748;2023-02-04T03:58:02;101313.84;;;7.34;100.00
69257;BME280;56376;53.356;-1.748;2023-02-04T04:00:28;101315.59;;;7.33;100.00
69257;BME280;56376;53.356;-1.748;2023-02-04T04:02:54;101318.16;;;7.32;100.00
69257;BME280;56376;53.356;-1.748;2023-02-04T04:05:19;101321.63;;;7.31;100.00
69257;BME280;56376;53.356;-1.748;2023-02-04T04:07:44;101321.63;;;7.32;100.00
69257;BME280;56376;53.356;-1.748;2023-02-04T04:10:10;101307.75;;;7.30;100.00
69257;BME280;56376;53.356;-1.748;2023-02-04T04:12:36;101317.31;;;7.31;100.00
69257;BME280;56376;53.356;-1.748;2023-02-04T04:15:01;101320.75;;;7.30;100.00
69257;BME280;56376;53.356;-1.748;2023-02-04T04:17:27;101332.91;;;7.31;100.00
69257;BME280;56376;53.356;-1.748;2023-02-04T04:19:52;101317.28;;;7.33;100.00
69257;BME280;56376;53.356;-1.748;2023-02-04T04:22:17;101324.22;;;7.32;100.00
69257;BME280;56376;53.356;-1.748;2023-02-04T04:24:43;101327.69;;;7.33;100.00
69257;BME280;56376;53.356;-1.748;2023-02-04T04:27:08;101324.22;;;7.32;100.00
69257;BME280;56376;53.356;-1.748;2023-02-04T04:29:34;101325.09;;;7.33;100.00
69257;BME280;56376;53.356;-1.748;2023-02-04T04:31:59;101325.09;;;7.31;100.00
69257;BME280;56376;53.356;-1.748;2023-02-04T04:34:25;101316.44;;;7.31;100.00
69257;BME280;56376;53.356;-1.748;2023-02-04T04:36:50;101319.03;;;7.35;100.00
69257;BME280;56376;53.356;-1.748;2023-02-04T04:39:15;101325.13;;;7.34;100.00
69257;BME280;56376;53.356;-1.748;2023-02-04T04:41:41;101319.03;;;7.35;100.00
69257;BME280;56376;53.356;-1.748;2023-02-04T04:44:06;101316.44;;;7.34;100.00
69257;BME280;56376;53.356;-1.748;2023-02-04T04:46:32;101322.50;;;7.34;100.00
69257;BME280;56376;53.356;-1.748;2023-02-04T04:48:57;101326.00;;;7.33;100.00
69257;BME280;56376;53.356;-1.748;2023-02-04T04:51:23;101319.03;;;7.34;100.00
69257;BME280;56376;53.356;-1.748;2023-02-04T04:53:48;101326.00;;;7.36;100.00
69257;BME280;56376;53.356;-1.748;2023-02-04T04:56:13;101336.41;;;7.36;100.00
69257;BME280;56376;53.356;-1.748;2023-02-04T04:58:39;101325.97;;;7.35;100.00
69257;BME280;56376;53.356;-1.748;2023-02-04T05:01:04;101321.66;;;7.34;100.00
69257;BME280;56376;53.356;-1.748;2023-02-04T05:03:29;101328.59;;;7.38;100.00
69257;BME280;56376;53.356;-1.748;2023-02-04T05:05:55;101332.94;;;7.39;100.00
69257;BME280;56376;53.356;-1.748;2023-02-04T05:08:20;101335.56;;;7.42;100.00
69257;BME280;56376;53.356;-1.748;2023-02-04T05:10:46;101334.69;;;7.45;100.00
69257;BME280;56376;53.356;-1.748;2023-02-04T05:13:12;101341.66;;;7.47;100.00
69257;BME280;56376;53.356;-1.748;2023-02-04T05:15:37;101352.03;;;7.47;100.00
69257;BME280;56376;53.356;-1.748;2023-02-04T05:18:03;101347.72;;;7.51;100.00
69257;BME280;56376;53.356;-1.748;2023-02-04T05:20:28;101346.00;;;7.51;100.00
69257;BME280;56376;53.356;-1.748;2023-02-04T05:22:54;101345.13;;;7.51;100.00
69257;BME280;56376;53.356;-1.748;2023-02-04T05:25:21;101349.47;;;7.55;100.00
69257;BME280;56376;53.356;-1.748;2023-02-04T05:27:47;101348.63;;;7.54;100.00
69257;BME280;56376;53.356;-1.748;2023-02-04T05:30:13;101342.53;;;7.52;100.00
69257;BME280;56376;53.356;-1.748;2023-02-04T05:32:38;101356.41;;;7.53;100.00
69257;BME280;56376;53.356;-1.748;2023-02-04T05:35:04;101351.22;;;7.54;100.00
69257;BME280;56376;53.356;-1.748;2023-02-04T05:37:30;101359.03;;;7.56;100.00
69257;BME280;56376;53.356;-1.748;2023-02-04T05:39:55;101359.03;;;7.54;100.00
69257;BME280;56376;53.356;-1.748;2023-02-04T05:42:21;101352.09;;;7.55;100.00
69257;BME280;56376;53.356;-1.748;2023-02-04T05:44:46;101357.31;;;7.56;100.00
69257;BME280;56376;53.356;-1.748;2023-02-04T05:47:12;101365.09;;;7.58;100.00
69257;BME280;56376;53.356;-1.748;2023-02-04T05:49:37;101361.63;;;7.57;100.00
69257;BME280;56376;53.356;-1.748;2023-02-04T05:52:03;101355.56;;;7.57;100.00
69257;BME280;56376;53.356;-1.748;2023-02-04T05:54:28;101360.75;;;7.55;100.00
69257;BME280;56376;53.356;-1.748;2023-02-04T05:56:53;101365.09;;;7.55;100.00
69257;BME280;56376;53.356;-1.748;2023-02-04T05:59:19;101364.22;;;7.54;100.00
69257;BME280;56376;53.356;-1.748;2023-02-04T06:01:44;101361.63;;;7.54;100.00
69257;BME280;56376;53.356;-1.748;2023-02-04T06:04:10;101359.91;;;7.53;100.00
69257;BME280;56376;53.356;-1.748;2023-02-04T06:06:35;101365.06;;;7.52;100.00
69257;BME280;56376;53.356;-1.748;2023-02-04T06:09:01;101372.91;;;7.53;100.00
69257;BME280;56376;53.356;-1.748;2023-02-04T06:11:26;101365.91;;;7.51;100.00
69257;BME280;56376;53.356;-1.748;2023-02-04T06:13:52;101367.69;;;7.53;100.00
69257;BME280;56376;53.356;-1.748;2023-02-04T06:16:17;101370.28;;;7.52;100.00
69257;BME280;56376;53.356;-1.748;2023-02-04T06:18:42;101366.81;;;7.51;100.00
69257;BME280;56376;53.356;-1.748;2023-02-04T06:21:08;101372.88;;;7.52;100.00
69257;BME280;56376;53.356;-1.748;2023-02-04T06:23:33;101374.63;;;7.51;100.00
69257;BME280;56376;53.356;-1.748;2023-02-04T06:26:00;101360.72;;;7.48;100.00
69257;BME280;56376;53.356;-1.748;2023-02-04T06:28:25;101372.00;;;7.51;100.00
69257;BME280;56376;53.356;-1.748;2023-02-04T06:30:51;101374.59;;;7.47;100.00
69257;BME280;56376;53.356;-1.748;2023-02-04T06:33:16;101376.31;;;7.48;100.00
69257;BME280;56376;53.356;-1.748;2023-02-04T06:35:42;101376.31;;;7.48;100.00
69257;BME280;56376;53.356;-1.748;2023-02-04T06:38:07;101383.28;;;7.49;100.00
69257;BME280;56376;53.356;-1.748;2023-02-04T06:40:32;101385.88;;;7.52;100.00
69257;BME280;56376;53.356;-1.748;2023-02-04T06:42:58;101387.59;;;7.50;100.00
69257;BME280;56376;53.356;-1.748;2023-02-04T06:45:23;101390.19;;;7.48;100.00
69257;BME280;56376;53.356;-1.748;2023-02-04T06:47:48;101392.78;;;7.47;100.00
69257;BME280;56376;53.356;-1.748;2023-02-04T06:50:14;101391.03;;;7.46;100.00
69257;BME280;56376;53.356;-1.748;2023-02-04T06:52:44;101391.91;;;7.45;100.00
69257;BME280;56376;53.356;-1.748;2023-02-04T06:55:11;101398.84;;;7.47;100.00
69257;BME280;56376;53.356;-1.748;2023-02-04T06:57:36;101392.75;;;7.45;100.00
69257;BME280;56376;53.356;-1.748;2023-02-04T07:00:02;101406.63;;;7.46;100.00
69257;BME280;56376;53.356;-1.748;2023-02-04T07:02:27;101396.22;;;7.44;100.00
69257;BME280;56376;53.356;-1.748;2023-02-04T07:04:52;101391.88;;;7.43;100.00
69257;BME280;56376;53.356;-1.748;2023-02-04T07:07:18;101392.78;;;7.44;100.00
69257;BME280;56376;53.356;-1.748;2023-02-04T07:09:43;101401.44;;;7.41;100.00
69257;BME280;56376;53.356;-1.748;2023-02-04T07:12:09;101401.44;;;7.41;100.00
69257;BME280;56376;53.356;-1.748;2023-02-04T07:14:34;101404.00;;;7.43;100.00
69257;BME280;56376;53.356;-1.748;2023-02-04T07:16:59;101410.94;;;7.41;100.00
69257;BME280;56376;53.356;-1.748;2023-02-04T07:19:25;101410.06;;;7.40;100.00
69257;BME280;56376;53.356;-1.748;2023-02-04T07:21:50;101416.13;;;7.41;100.00
69257;BME280;56376;53.356;-1.748;2023-02-04T07:24:18;101411.81;;;7.40;100.00
69257;BME280;56376;53.356;-1.748;2023-02-04T07:26:44;101411.78;;;7.36;100.00
69257;BME280;56376;53.356;-1.748;2023-02-04T07:29:09;101422.16;;;7.32;100.00
69257;BME280;56376;53.356;-1.748;2023-02-04T07:31:34;101421.28;;;7.33;100.00
69257;BME280;56376;53.356;-1.748;2023-02-04T07:34:00;101414.31;;;7.30;100.00
69257;BME280;56376;53.356;-1.748;2023-02-04T07:36:25;101423.84;;;7.30;100.00
69257;BME280;56376;53.356;-1.748;2023-02-04T07:38:51;101422.13;;;7.29;100.00
69257;BME280;56376;53.356;-1.748;2023-02-04T07:41:16;101423.84;;;7.30;100.00
69257;BME280;56376;53.356;-1.748;2023-02-04T07:43:41;101416.03;;;7.27;100.00
69257;BME280;56376;53.356;-1.748;2023-02-04T07:46:07;101423.84;;;7.27;100.00
69257;BME280;56376;53.356;-1.748;2023-02-04T07:48:32;101429.91;;;7.26;100.00
69257;BME280;56376;53.356;-1.748;2023-02-04T07:50:57;101421.22;;;7.25;100.00
69257;BME280;56376;53.356;-1.748;2023-02-04T07:53:23;101426.44;;;7.24;100.00
69257;BME280;56376;53.356;-1.748;2023-02-04T07:55:48;101425.50;;;7.20;100.00
69257;BME280;56376;53.356;-1.748;2023-02-04T07:58:14;101434.19;;;7.22;100.00
69257;BME280;56376;53.356;-1.748;2023-02-04T08:00:39;101442.00;;;7.22;100.00
69257;BME280;56376;53.356;-1.748;2023-02-04T08:03:05;101442.84;;;7.20;100.00
69257;BME280;56376;53.356;-1.748;2023-02-04T08:05:31;101441.97;;;7.19;100.00
69257;BME280;56376;53.356;-1.748;2023-02-04T08:07:56;101452.41;;;7.25;100.00
69257;BME280;56376;53.356;-1.748;2023-02-04T08:10:23;101452.44;;;7.27;100.00
69257;BME280;56376;53.356;-1.748;2023-02-04T08:12:48;101452.41;;;7.25;100.00
69257;BME280;56376;53.356;-1.748;2023-02-04T08:15:13;101455.91;;;7.27;100.00
69257;BME280;56376;53.356;-1.748;2023-02-04T08:17:39;101459.38;;;7.28;100.00
69257;BME280;56376;53.356;-1.748;2023-02-04T08:20:04;101466.31;;;7.30;100.00
69257;BME280;56376;53.356;-1.748;2023-02-04T08:22:30;101461.13;;;7.30;100.00
69257;BME280;56376;53.356;-1.748;2023-02-04T08:24:55;101458.53;;;7.29;100.00
69257;BME280;56376;53.356;-1.748;2023-02-04T08:27:21;101468.91;;;7.29;100.00
69257;BME280;56376;53.356;-1.748;2023-02-04T08:29:47;101468.06;;;7.28;100.00
69257;BME280;56376;53.356;-1.748;2023-02-04T08:32:13;101457.66;;;7.28;100.00
69257;BME280;56376;53.356;-1.748;2023-02-04T08:34:38;101468.97;;;7.36;100.00
69257;BME280;56376;53.356;-1.748;2023-02-04T08:37:04;101471.59;;;7.40;100.00
69257;BME280;56376;53.356;-1.748;2023-02-04T08:39:30;101469.88;;;7.40;100.00
69257;BME280;56376;53.356;-1.748;2023-02-04T08:41:57;101462.91;;;7.36;100.00
69257;BME280;56376;53.356;-1.748;2023-02-04T08:44:22;101476.78;;;7.38;100.00
69257;BME280;56376;53.356;-1.748;2023-02-04T08:46:47;101460.31;;;7.36;100.00
69257;BME280;56376;53.356;-1.748;2023-02-04T08:49:13;101464.66;;;7.39;100.00
69257;BME280;56376;53.356;-1.748;2023-02-04T08:51:38;101467.25;;;7.40;100.00
69257;BME280;56376;53.356;-1.748;2023-02-04T08:54:03;101461.19;;;7.38;100.00
69257;BME280;56376;53.356;-1.748;2023-02-04T08:56:29;101463.78;;;7.36;100.00
69257;BME280;56376;53.356;-1.748;2023-02-04T08:58:55;101466.38;;;7.36;100.00
69257;BME280;56376;53.356;-1.748;2023-02-04T09:01:20;101467.22;;;7.34;100.00
69257;BME280;56376;53.356;-1.748;2023-02-04T09:03:46;101462.00;;;7.32;100.00
69257;BME280;56376;53.356;-1.748;2023-02-04T09:06:12;101459.41;;;7.35;100.00
69257;BME280;56376;53.356;-1.748;2023-02-04T09:08:37;101451.63;;;7.35;100.00
69257;BME280;56376;53.356;-1.748;2023-02-04T09:11:03;101439.47;;;7.33;100.00
69257;BME280;56376;53.356;-1.748;2023-02-04T09:13:30;101446.41;;;7.32;100.00
69257;BME280;56376;53.356;-1.748;2023-02-04T09:15:56;101449.91;;;7.34;100.00
69257;BME280;56376;53.356;-1.748;2023-02-04T09:18:21;101450.75;;;7.35;100.00
69257;BME280;56376;53.356;-1.748;2023-02-04T09:20:48;101443.81;;;7.35;100.00
69257;BME280;56376;53.356;-1.748;2023-02-04T09:23:14;101445.59;;;7.36;100.00
69257;BME280;56376;53.356;-1.748;2023-02-04T09:25:41;101456.84;;;7.37;100.00
69257;BME280;56376;53.356;-1.748;2023-02-04T09:28:09;101452.50;;;7.37;100.00
69257;BME280;56376;53.356;-1.748;2023-02-04T09:30:36;101452.53;;;7.39;100.00
69257;BME280;56376;53.356;-1.748;2023-02-04T09:33:01;101449.06;;;7.39;100.00
69257;BME280;56376;53.356;-1.748;2023-02-04T09:35:27;101461.19;;;7.40;100.00
69257;BME280;56376;53.356;-1.748;2023-02-04T09:37:52;101470.78;;;7.44;100.00
69257;BME280;56376;53.356;-1.748;2023-02-04T09:40:18;101462.06;;;7.40;100.00
69257;BME280;56376;53.356;-1.748;2023-02-04T09:42:47;101456.88;;;7.39;100.00
69257;BME280;56376;53.356;-1.748;2023-02-04T09:45:34;101463.81;;;7.41;100.00
69257;BME280;56376;53.356;-1.748;2023-02-04T09:48:02;101462.94;;;7.42;100.00
69257;BME280;56376;53.356;-1.748;2023-02-04T09:50:29;101465.56;;;7.44;100.00
69257;BME280;56376;53.356;-1.748;2023-02-04T09:52:58;101466.44;;;7.44;100.00
69257;BME280;56376;53.356;-1.748;2023-02-04T09:55:32;101467.31;;;7.45;100.00
69257;BME280;56376;53.356;-1.748;2023-02-04T09:57:58;101472.53;;;7.46;100.00
69257;BME280;56376;53.356;-1.748;2023-02-04T10:00:27;101480.31;;;7.48;100.00
69257;BME280;56376;53.356;-1.748;2023-02-04T10:02:55;101469.03;;;7.46;100.00
69257;BME280;56376;53.356;-1.748;2023-02-04T10:05:27;101472.53;;;7.49;100.00
69257;BME280;56376;53.356;-1.748;2023-02-04T10:07:52;101479.47;;;7.50;100.00
69257;BME280;56376;53.356;-1.748;2023-02-04T10:10:23;101474.28;;;7.50;100.00
69257;BME280;56376;53.356;-1.748;2023-02-04T10:12:52;101481.22;;;7.53;100.00
69257;BME280;56376;53.356;-1.748;2023-02-04T10:15:19;101483.84;;;7.54;100.00
69257;BME280;56376;53.356;-1.748;2023-02-04T10:17:47;101479.53;;;7.53;100.00
69257;BME280;56376;53.356;-1.748;2023-02-04T10:20:22;101480.38;;;7.55;100.00
69257;BME280;56376;53.356;-1.748;2023-02-04T10:22:52;101486.47;;;7.56;100.00
69257;BME280;56376;53.356;-1.748;2023-02-04T10:25:20;101476.91;;;7.55;100.00
69257;BME280;56376;53.356;-1.748;2023-02-04T10:27:56;101488.19;;;7.55;100.00
69257;BME280;56376;53.356;-1.748;2023-02-04T10:30:27;101488.19;;;7.55;100.00
69257;BME280;56376;53.356;-1.748;2023-02-04T10:32:58;101489.06;;;7.56;100.00
69257;BME280;56376;53.356;-1.748;2023-02-04T10:35:24;101501.19;;;7.57;100.00
69257;BME280;56376;53.356;-1.748;2023-02-04T10:38:10;101495.13;;;7.56;100.00
69257;BME280;56376;53.356;-1.748;2023-02-04T10:40:35;101500.34;;;7.56;100.00
69257;BME280;56376;53.356;-1.748;2023-02-04T10:43:15;101502.06;;;7.56;100.00
69257;BME280;56376;53.356;-1.748;2023-02-04T10:46:02;101502.94;;;7.58;100.00
69257;BME280;56376;53.356;-1.748;2023-02-04T10:48:29;101506.44;;;7.58;100.00
69257;BME280;56376;53.356;-1.748;2023-02-04T10:50:56;101498.63;;;7.58;100.00
69257;BME280;56376;53.356;-1.748;2023-02-04T10:53:24;101504.69;;;7.59;100.00
69257;BME280;56376;53.356;-1.748;2023-02-04T10:56:21;101510.78;;;7.61;100.00
69257;BME280;56376;53.356;-1.748;2023-02-04T10:58:46;101503.81;;;7.60;100.00
69257;BME280;56376;53.356;-1.748;2023-02-04T11:01:14;101496.94;;;7.64;100.00
69257;BME280;56376;53.356;-1.748;2023-02-04T11:03:41;101498.66;;;7.65;100.00
69257;BME280;56376;53.356;-1.748;2023-02-04T11:06:12;101492.59;;;7.66;100.00
69257;BME280;56376;53.356;-1.748;2023-02-04T11:08:39;101491.75;;;7.67;100.00
69257;BME280;56376;53.356;-1.748;2023-02-04T11:11:07;101501.28;;;7.68;100.00
69257;BME280;56376;53.356;-1.748;2023-02-04T11:13:41;101485.69;;;7.69;100.00
69257;BME280;56376;53.356;-1.748;2023-02-04T11:16:10;101491.75;;;7.67;100.00
69257;BME280;56376;53.356;-1.748;2023-02-04T11:18:50;101500.44;;;7.69;100.00
69257;BME280;56376;53.356;-1.748;2023-02-04T11:21:42;101500.41;;;7.70;100.00
69257;BME280;56376;53.356;-1.748;2023-02-04T11:26:40;101497.00;;;7.76;100.00
69257;BME280;56376;53.356;-1.748;2023-02-04T11:29:07;101504.78;;;7.76;100.00
69257;BME280;56376;53.356;-1.748;2023-02-04T11:39:46;101515.22;;;7.77;100.00
69257;BME280;56376;53.356;-1.748;2023-02-04T11:42:42;101518.72;;;7.79;100.00
69257;BME280;56376;53.356;-1.748;2023-02-04T11:45:20;101506.56;;;7.80;100.00
69257;BME280;56376;53.356;-1.748;2023-02-04T11:47:49;101504.81;;;7.80;100.00
69257;BME280;56376;53.356;-1.748;2023-02-04T11:50:20;101511.78;;;7.83;100.00
69257;BME280;56376;53.356;-1.748;2023-02-04T11:52:46;101503.09;;;7.79;100.00
69257;BME280;56376;53.356;-1.748;2023-02-04T11:55:12;101498.78;;;7.82;100.00
69257;BME280;56376;53.356;-1.748;2023-02-04T11:57:42;101496.19;;;7.82;100.00
69257;BME280;56376;53.356;-1.748;2023-02-04T12:00:22;101494.44;;;7.84;100.00
69257;BME280;56376;53.356;-1.748;2023-02-04T12:02:59;101491.84;;;7.84;100.00
69257;BME280;56376;53.356;-1.748;2023-02-04T12:05:43;101491.00;;;7.85;100.00
69257;BME280;56376;53.356;-1.748;2023-02-04T12:11:11;101483.19;;;7.85;100.00
69257;BME280;56376;53.356;-1.748;2023-02-04T12:13:52;101485.78;;;7.85;100.00
69257;BME280;56376;53.356;-1.748;2023-02-04T12:16:18;101480.56;;;7.83;100.00
69257;BME280;56376;53.356;-1.748;2023-02-04T12:18:44;101486.66;;;7.85;100.00
69257;BME280;56376;53.356;-1.748;2023-02-04T12:21:09;101488.41;;;7.88;100.00
69257;BME280;56376;53.356;-1.748;2023-02-04T12:23:35;101491.88;;;7.90;100.00
69257;BME280;56376;53.356;-1.748;2023-02-04T12:26:00;101490.16;;;7.89;100.00
69257;BME280;56376;53.356;-1.748;2023-02-04T12:28:26;101492.75;;;7.90;100.00
69257;BME280;56376;53.356;-1.748;2023-02-04T12:30:54;101497.97;;;7.92;100.00
69257;BME280;56376;53.356;-1.748;2023-02-04T12:33:20;101494.50;;;7.90;100.00
69257;BME280;56376;53.356;-1.748;2023-02-04T12:35:47;101491.00;;;7.88;100.00
69257;BME280;56376;53.356;-1.748;2023-02-04T12:38:12;101488.41;;;7.88;100.00
69257;BME280;56376;53.356;-1.748;2023-02-04T12:40:39;101488.41;;;7.89;100.00
69257;BME280;56376;53.356;-1.748;2023-02-04T12:43:04;101484.97;;;7.89;100.00
69257;BME280;56376;53.356;-1.748;2023-02-04T12:45:30;101484.97;;;7.92;100.00
69257;BME280;56376;53.356;-1.748;2023-02-04T12:47:56;101471.06;;;7.90;100.00
69257;BME280;56376;53.356;-1.748;2023-02-04T12:50:21;101471.03;;;7.88;100.00
69257;BME280;56376;53.356;-1.748;2023-02-04T12:52:48;101478.00;;;7.88;100.00
69257;BME280;56376;53.356;-1.748;2023-02-04T12:55:14;101465.88;;;7.90;100.00